createdAt,value
2017-11-26T00:01:01.295Z,83.17
2017-11-26T00:03:27.701Z,77.60
2017-11-26T00:05:54.057Z,78.23
2017-11-26T00:08:20.447Z,74.70
2017-11-26T00:10:46.868Z,77.67
2017-11-26T00:13:13.205Z,76.60
2017-11-26T00:15:39.598Z,76.17
2017-11-26T00:18:06.091Z,76.23
2017-11-26T00:20:32.471Z,68.70
2017-11-26T00:22:58.830Z,68.40
2017-11-26T00:25:25.203Z,75.63
2017-11-26T00:27:51.549Z,71.20
2017-11-26T00:30:17.950Z,77.43
2017-11-26T00:32:44.390Z,79.23
2017-11-26T00:35:10.759Z,67.80
2017-11-26T00:37:37.390Z,73.37
2017-11-26T00:40:03.801Z,81.47
2017-11-26T00:42:30.133Z,82.33
2017-11-26T00:44:56.498Z,87.13
2017-11-26T00:47:22.883Z,84.50
2017-11-26T00:49:49.211Z,80.83
2017-11-26T00:52:15.543Z,84.50
2017-11-26T00:54:41.902Z,81.90
2017-11-26T00:57:08.241Z,72.53
2017-11-26T00:59:34.638Z,70.47
2017-11-26T01:02:01.001Z,86.37
2017-11-26T01:04:27.337Z,85.80
2017-11-26T01:06:53.718Z,83.27
2017-11-26T01:09:20.094Z,87.73
2017-11-26T01:11:46.435Z,89.47
2017-11-26T01:14:12.777Z,88.83
2017-11-26T01:16:39.261Z,81.83
2017-11-26T01:19:05.592Z,76.07
2017-11-26T01:21:31.908Z,79.53
2017-11-26T01:23:58.261Z,84.10
2017-11-26T01:26:24.613Z,84.03
2017-11-26T01:28:51.025Z,83.57
2017-11-26T01:31:17.494Z,76.17
2017-11-26T01:33:43.857Z,83.27
2017-11-26T01:36:10.258Z,76.80
2017-11-26T01:38:36.789Z,78.07
2017-11-26T01:41:03.154Z,77.47
2017-11-26T01:43:29.499Z,82.63
2017-11-26T01:45:55.882Z,76.10
2017-11-26T01:48:22.290Z,80.13
2017-11-26T01:50:48.709Z,81.30
2017-11-26T01:53:15.120Z,77.73
2017-11-26T01:55:41.517Z,84.97
2017-11-26T01:58:07.910Z,80.23
2017-11-26T02:00:34.414Z,74.03
2017-11-26T02:03:00.829Z,78.97
2017-11-26T02:05:27.223Z,71.80
2017-11-26T02:07:53.639Z,76.13
2017-11-26T02:10:20.035Z,78.50
2017-11-26T02:12:46.410Z,82.47
2017-11-26T02:15:12.802Z,72.30
2017-11-26T02:17:39.162Z,78.87
2017-11-26T02:20:05.555Z,69.57
2017-11-26T02:22:31.997Z,77.43
2017-11-26T02:24:58.422Z,73.27
2017-11-26T02:27:24.857Z,69.27
2017-11-26T02:29:51.313Z,75.00
2017-11-26T02:45:47.125Z,75.47
2017-11-26T02:48:13.608Z,67.73
2017-11-26T02:50:40.016Z,69.93
2017-11-26T02:53:06.490Z,68.57
2017-11-26T02:55:32.923Z,68.47
2017-11-26T02:57:59.345Z,66.03
2017-11-26T03:00:25.829Z,73.23
2017-11-26T03:02:52.209Z,66.90
2017-11-26T03:05:18.550Z,66.97
2017-11-26T03:07:44.981Z,70.30
2017-11-26T03:10:11.349Z,69.03
2017-11-26T03:12:38.314Z,56.40
2017-11-26T03:15:04.779Z,61.97
2017-11-26T03:17:31.215Z,59.80
2017-11-26T03:19:57.597Z,67.30
2017-11-26T03:22:23.973Z,70.10
2017-11-26T03:24:50.340Z,71.27
2017-11-26T03:27:16.730Z,78.10
2017-11-26T03:29:43.195Z,65.03
2017-11-26T03:32:09.582Z,63.57
2017-11-26T03:34:35.906Z,63.13
2017-11-26T03:37:02.325Z,64.37
2017-11-26T03:39:28.745Z,63.17
2017-11-26T03:41:55.165Z,62.50
2017-11-26T03:44:21.556Z,57.80
2017-11-26T03:46:47.928Z,61.53
2017-11-26T03:49:14.435Z,58.33
2017-11-26T03:51:40.849Z,59.73
2017-11-26T03:54:07.258Z,59.13
2017-11-26T03:56:34.594Z,62.40
2017-11-26T03:59:01.036Z,59.83
2017-11-26T04:01:27.454Z,62.10
2017-11-26T04:03:53.798Z,61.10
2017-11-26T04:06:20.201Z,61.70
2017-11-26T04:08:46.583Z,55.37
2017-11-26T04:11:12.917Z,54.33
2017-11-26T04:13:39.331Z,57.67
2017-11-26T04:16:05.741Z,45.70
2017-11-26T04:18:32.178Z,53.20
2017-11-26T04:20:58.593Z,50.40
2017-11-26T04:23:24.931Z,55.17
2017-11-26T04:25:51.346Z,52.63
2017-11-26T04:28:17.742Z,54.57
2017-11-26T04:30:44.271Z,51.30
2017-11-26T04:33:10.669Z,55.03
2017-11-26T04:35:37.085Z,53.50
2017-11-26T04:38:03.473Z,50.43
2017-11-26T04:40:29.930Z,47.43
2017-11-26T04:42:56.334Z,50.87
2017-11-26T04:45:22.696Z,40.33
2017-11-26T04:47:49.074Z,47.37
2017-11-26T04:50:15.554Z,49.20
2017-11-26T04:52:41.913Z,43.67
2017-11-26T04:55:08.303Z,49.27
2017-11-26T04:57:34.754Z,42.63
2017-11-26T05:00:01.187Z,41.23
2017-11-26T05:02:27.597Z,52.40
2017-11-26T05:04:54.069Z,44.20
2017-11-26T05:07:20.473Z,41.13
2017-11-26T05:09:46.854Z,43.37
2017-11-26T05:12:13.258Z,38.67
2017-11-26T05:14:39.647Z,40.60
2017-11-26T05:17:05.998Z,39.93
2017-11-26T05:19:32.449Z,42.87
2017-11-26T05:21:58.831Z,41.27
2017-11-26T05:24:25.197Z,41.50
2017-11-26T05:26:51.581Z,41.90
2017-11-26T05:29:17.957Z,44.70
2017-11-26T05:31:44.325Z,39.03
2017-11-26T05:34:10.726Z,42.57
2017-11-26T05:36:37.077Z,37.97
2017-11-26T05:39:03.537Z,41.33
2017-11-26T05:41:29.958Z,44.53
2017-11-26T05:43:56.329Z,42.20
2017-11-26T05:46:22.725Z,40.70
2017-11-26T05:48:49.188Z,44.37
2017-11-26T05:51:15.599Z,45.67
2017-11-26T05:53:41.985Z,47.67
2017-11-26T05:56:08.401Z,47.47
2017-11-26T05:58:34.745Z,46.60
2017-11-26T06:01:01.134Z,49.97
2017-11-26T06:03:27.555Z,46.13
2017-11-26T06:05:53.915Z,46.00
2017-11-26T06:08:20.322Z,46.13
2017-11-26T06:10:46.762Z,49.37
2017-11-26T06:13:13.161Z,45.60
2017-11-26T06:15:39.525Z,49.57
2017-11-26T06:18:05.942Z,49.20
2017-11-26T06:20:32.331Z,46.40
2017-11-26T06:22:58.686Z,43.40
2017-11-26T06:25:25.097Z,42.37
2017-11-26T06:27:51.469Z,33.63
2017-11-26T06:30:17.858Z,45.37
2017-11-26T06:32:44.261Z,44.23
2017-11-26T06:35:10.630Z,47.03
2017-11-26T06:37:37.061Z,45.87
2017-11-26T06:40:03.502Z,42.67
2017-11-26T06:42:29.875Z,37.93
2017-11-26T06:44:56.251Z,37.17
2017-11-26T06:47:22.719Z,39.50
2017-11-26T06:49:49.077Z,40.13
2017-11-26T06:52:15.719Z,36.93
2017-11-26T06:54:42.180Z,40.43
2017-11-26T06:57:08.576Z,43.23
2017-11-26T06:59:34.945Z,43.47
2017-11-26T07:02:01.431Z,43.43
2017-11-26T07:04:27.833Z,36.00
2017-11-26T07:06:55.271Z,34.50
2017-11-26T07:09:21.663Z,34.97
2017-11-26T07:11:48.177Z,35.33
2017-11-26T07:14:14.557Z,39.50
2017-11-26T07:16:40.970Z,37.00
2017-11-26T07:19:07.362Z,42.53
2017-11-26T07:21:33.739Z,40.93
2017-11-26T07:24:00.182Z,39.13
2017-11-26T07:26:26.566Z,43.60
2017-11-26T07:28:52.946Z,47.40
2017-11-26T07:31:19.346Z,36.53
2017-11-26T07:33:45.688Z,39.17
2017-11-26T07:36:12.190Z,34.97
2017-11-26T07:38:38.571Z,45.60
2017-11-26T07:41:04.945Z,47.53
2017-11-26T07:43:31.480Z,51.17
2017-11-26T07:45:57.921Z,54.73
2017-11-26T07:48:24.261Z,57.17
2017-11-26T07:50:50.607Z,42.70
2017-11-26T07:53:17.139Z,60.77
2017-11-26T07:55:43.469Z,57.93
2017-11-26T07:58:09.793Z,53.10
2017-11-26T08:00:36.258Z,53.37
2017-11-26T08:03:02.657Z,63.73
2017-11-26T08:05:29.029Z,49.37
2017-11-26T08:07:55.449Z,65.23
2017-11-26T08:10:21.815Z,65.00
2017-11-26T08:12:48.169Z,72.10
2017-11-26T08:15:14.556Z,64.77
2017-11-26T08:17:41.111Z,71.03
2017-11-26T08:20:07.459Z,48.30
2017-11-26T08:22:33.819Z,45.50
2017-11-26T08:25:00.254Z,59.93
2017-11-26T08:27:26.593Z,71.40
2017-11-26T08:29:52.977Z,58.40
2017-11-26T08:32:19.657Z,69.10
2017-11-26T08:34:45.990Z,62.27
2017-11-26T08:37:12.425Z,46.53
2017-11-26T08:39:38.856Z,69.10
2017-11-26T08:42:05.222Z,75.87
2017-11-26T08:44:31.638Z,75.97
2017-11-26T08:46:58.022Z,69.00
2017-11-26T08:49:24.526Z,54.43
2017-11-26T08:51:50.969Z,61.23
2017-11-26T08:54:17.369Z,55.13
2017-11-26T08:56:43.740Z,67.33
2017-11-26T08:59:10.178Z,61.90
2017-11-26T09:01:36.566Z,50.83
2017-11-26T09:04:02.984Z,72.13
2017-11-26T09:06:30.182Z,66.47
2017-11-26T09:08:58.393Z,67.43
2017-11-26T09:11:24.765Z,59.87
2017-11-26T09:13:51.176Z,68.23
2017-11-26T09:16:17.541Z,68.20
2017-11-26T09:18:43.917Z,69.60
2017-11-26T09:21:10.328Z,75.17
2017-11-26T09:23:36.679Z,68.60
2017-11-26T09:26:03.016Z,74.27
2017-11-26T09:28:29.441Z,99.57
2017-11-26T09:30:55.776Z,104.20
2017-11-26T09:33:22.127Z,96.57
2017-11-26T09:35:48.480Z,82.20
2017-11-26T09:38:14.805Z,93.70
2017-11-26T09:40:41.197Z,96.50
2017-11-26T09:43:07.758Z,93.87
2017-11-26T09:45:34.166Z,90.40
2017-11-26T09:48:00.537Z,85.77
2017-11-26T09:50:26.933Z,77.40
2017-11-26T09:52:53.291Z,91.23
2017-11-26T09:55:19.617Z,104.73
2017-11-26T09:57:45.985Z,106.07
2017-11-26T10:00:12.349Z,96.30
2017-11-26T10:02:38.749Z,80.63
2017-11-26T10:05:05.125Z,74.10
2017-11-26T10:07:31.478Z,93.83
2017-11-26T10:09:57.810Z,74.97
2017-11-26T10:12:24.190Z,68.37
2017-11-26T10:14:50.515Z,65.27
2017-11-26T10:17:16.840Z,66.07
2017-11-26T10:19:43.337Z,69.63
2017-11-26T10:22:11.673Z,72.33
2017-11-26T10:24:38.033Z,71.30
2017-11-26T10:27:04.480Z,74.80
2017-11-26T10:29:30.858Z,79.97
2017-11-26T10:31:57.243Z,66.20
2017-11-26T10:34:23.640Z,72.27
2017-11-26T10:36:50.004Z,77.00
2017-11-26T10:39:16.360Z,77.03
2017-11-26T10:41:42.743Z,71.00
2017-11-26T10:44:09.161Z,66.37
2017-11-26T10:46:35.616Z,63.57
2017-11-26T10:49:02.101Z,62.67
2017-11-26T10:51:28.568Z,62.13
2017-11-26T10:53:55.022Z,66.40
2017-11-26T10:56:21.452Z,65.07
2017-11-26T10:58:47.885Z,70.40
2017-11-26T11:01:14.318Z,73.43
2017-11-26T11:03:40.880Z,76.87
2017-11-26T11:06:07.289Z,68.60
2017-11-26T11:08:33.716Z,65.07
2017-11-26T11:11:00.156Z,75.40
2017-11-26T11:13:26.572Z,72.37
2017-11-26T11:15:52.980Z,76.07
2017-11-26T11:18:19.401Z,81.47
2017-11-26T11:20:45.869Z,70.87
2017-11-26T11:23:12.265Z,76.10
2017-11-26T11:25:38.681Z,65.73
2017-11-26T11:28:05.294Z,59.57
2017-11-26T11:30:31.690Z,77.07
2017-11-26T11:32:58.156Z,73.03
2017-11-26T11:35:24.513Z,79.23
2017-11-26T11:37:50.845Z,78.03
2017-11-26T11:40:17.264Z,73.53
2017-11-26T11:42:43.633Z,75.60
2017-11-26T11:45:10.039Z,71.13
2017-11-26T11:47:36.423Z,66.07
2017-11-26T11:50:02.785Z,66.93
2017-11-26T11:52:29.353Z,85.00
2017-11-26T11:54:55.861Z,81.60
2017-11-26T11:57:22.283Z,73.23
2017-11-26T11:59:48.851Z,81.90
2017-11-26T12:02:15.345Z,70.80
2017-11-26T12:04:41.785Z,83.53
2017-11-26T12:07:08.181Z,83.10
2017-11-26T12:09:34.630Z,96.37
2017-11-26T12:12:01.046Z,104.43
2017-11-26T12:14:27.485Z,79.10
2017-11-26T12:16:53.987Z,79.07
2017-11-26T12:19:20.516Z,77.63
2017-11-26T12:21:47.024Z,85.90
2017-11-26T12:24:13.538Z,78.10
2017-11-26T12:26:40.001Z,89.20
2017-11-26T12:29:06.523Z,84.57
2017-11-26T12:31:33.066Z,75.67
2017-11-26T12:33:59.573Z,84.07
2017-11-26T12:36:26.243Z,87.83
2017-11-26T12:38:52.722Z,86.53
2017-11-26T12:41:19.169Z,78.40
2017-11-26T12:43:45.718Z,91.30
2017-11-26T12:46:12.306Z,70.03
2017-11-26T12:48:38.842Z,96.33
2017-11-26T12:51:05.302Z,87.63
2017-11-26T12:53:31.789Z,91.47
2017-11-26T12:55:58.210Z,84.93
2017-11-26T12:58:24.659Z,81.23
2017-11-26T13:00:51.149Z,95.93
2017-11-26T13:03:17.652Z,106.63
2017-11-26T13:05:44.182Z,93.17
2017-11-26T13:08:10.715Z,103.17
2017-11-26T13:10:37.332Z,100.53
2017-11-26T13:13:03.798Z,104.30
2017-11-26T13:15:30.408Z,98.40
2017-11-26T13:17:56.946Z,103.40
2017-11-26T13:20:23.462Z,100.13
2017-11-26T13:28:57.685Z,126.83
2017-11-26T13:31:24.191Z,118.90
2017-11-26T13:33:50.764Z,116.00
2017-11-26T13:36:17.261Z,133.50
2017-11-26T13:38:43.798Z,125.10
2017-11-26T13:41:10.263Z,151.73
2017-11-26T13:43:36.946Z,143.27
2017-11-26T13:46:03.390Z,134.10
2017-11-26T13:48:29.955Z,126.03
2017-11-26T13:50:56.544Z,134.07
2017-11-26T13:53:23.372Z,135.23
2017-11-26T13:55:49.862Z,132.53
2017-11-26T13:58:16.713Z,164.33
2017-11-26T14:00:43.272Z,138.00
2017-11-26T14:03:09.849Z,147.07
2017-11-26T14:05:36.620Z,136.80
2017-11-26T14:08:03.218Z,154.30
2017-11-26T14:10:30.003Z,140.13
2017-11-26T14:12:56.755Z,141.73
2017-11-26T14:15:23.372Z,137.33
2017-11-26T14:17:49.994Z,143.37
2017-11-26T14:20:16.858Z,168.67
2017-11-26T14:22:43.387Z,148.03
2017-11-26T14:25:09.838Z,144.47
2017-11-26T14:27:36.392Z,125.33
2017-11-26T14:30:02.869Z,152.50
2017-11-26T14:32:29.309Z,139.23
2017-11-26T14:34:55.933Z,138.17
2017-11-26T14:37:22.394Z,127.40
2017-11-26T14:39:48.867Z,105.87
2017-11-26T14:42:15.408Z,160.97
2017-11-26T14:44:41.866Z,155.53
2017-11-26T14:47:08.317Z,160.50
2017-11-26T14:49:34.811Z,170.60
2017-11-26T14:52:01.274Z,158.10
2017-11-26T14:54:27.722Z,167.93
2017-11-26T14:56:54.271Z,170.07
2017-11-26T14:59:20.726Z,96.93
2017-11-26T15:01:47.190Z,152.80
2017-11-26T15:04:13.702Z,179.40
2017-11-26T15:06:40.152Z,198.33
2017-11-26T15:09:06.807Z,158.97
2017-11-26T15:11:33.335Z,179.43
2017-11-26T15:13:59.862Z,171.00
2017-11-26T15:16:26.330Z,166.37
2017-11-26T15:18:52.943Z,106.60
2017-11-26T15:21:19.410Z,145.83
2017-11-26T15:23:45.834Z,147.13
2017-11-26T15:26:12.365Z,151.77
2017-11-26T15:28:38.811Z,176.03
2017-11-26T15:31:05.461Z,172.87
2017-11-26T15:33:32.160Z,180.77
2017-11-26T15:35:58.615Z,151.67
2017-11-26T15:38:25.469Z,144.67
2017-11-26T15:40:53.241Z,144.17
2017-11-26T15:43:19.719Z,148.07
2017-11-26T15:45:46.182Z,143.43
2017-11-26T15:48:12.681Z,132.23
2017-11-26T15:50:39.987Z,104.40
2017-11-26T15:53:06.463Z,156.10
2017-11-26T15:55:32.995Z,143.07
2017-11-26T15:57:59.626Z,146.97
2017-11-26T16:00:26.359Z,133.37
2017-11-26T16:02:52.868Z,115.93
2017-11-26T16:05:19.356Z,135.50
2017-11-26T16:07:45.823Z,125.27
2017-11-26T16:10:12.375Z,143.77
2017-11-26T16:12:38.873Z,152.47
2017-11-26T16:15:05.723Z,132.50
2017-11-26T16:17:32.217Z,130.20
2017-11-26T16:19:59.819Z,128.17
2017-11-26T16:22:29.093Z,131.83
2017-11-26T16:24:56.605Z,120.53
2017-11-26T16:27:25.958Z,123.60
2017-11-26T16:29:52.406Z,119.50
2017-11-26T16:32:19.026Z,123.50
2017-11-26T16:34:45.815Z,123.43
2017-11-26T16:37:12.272Z,124.10
2017-11-26T16:39:40.139Z,114.50
2017-11-26T16:42:07.835Z,113.33
2017-11-26T16:44:34.386Z,106.53
2017-11-26T16:47:00.906Z,99.20
2017-11-26T16:49:27.383Z,105.60
2017-11-26T16:51:54.972Z,100.53
2017-11-26T16:54:22.458Z,100.87
2017-11-26T16:56:48.986Z,105.83
2017-11-26T16:59:15.599Z,110.60
2017-11-26T17:01:42.066Z,102.53
2017-11-26T17:04:08.487Z,109.37
2017-11-26T17:06:35.104Z,104.70
2017-11-26T17:09:01.626Z,100.03
2017-11-26T17:11:28.150Z,95.77
2017-11-26T17:13:54.946Z,97.63
2017-11-26T17:16:22.065Z,92.10
2017-11-26T17:18:48.629Z,101.63
2017-11-26T17:21:15.099Z,93.43
2017-11-26T17:23:41.584Z,87.93
2017-11-26T17:26:08.033Z,63.70
2017-11-26T17:28:34.622Z,90.37
2017-11-26T17:31:01.158Z,92.20
2017-11-26T17:33:27.618Z,102.70
2017-11-26T17:35:54.074Z,95.93
2017-11-26T17:38:20.583Z,93.73
2017-11-26T17:40:47.049Z,89.80
2017-11-26T17:43:14.342Z,92.10
2017-11-26T17:45:40.907Z,92.83
2017-11-26T17:48:07.381Z,94.90
2017-11-26T17:50:33.855Z,85.90
2017-11-26T17:53:02.042Z,89.77
2017-11-26T17:55:28.491Z,84.70
2017-11-26T17:57:54.972Z,86.60
2017-11-26T18:00:25.309Z,86.10
2017-11-26T18:02:51.757Z,85.33
2017-11-26T18:05:18.151Z,81.87
2017-11-26T18:07:44.674Z,84.00
2017-11-26T18:10:11.099Z,80.43
2017-11-26T18:12:38.489Z,83.00
2017-11-26T18:15:05.003Z,80.87
2017-11-26T18:17:31.431Z,73.43
2017-11-26T18:19:58.730Z,74.20
2017-11-26T18:22:25.187Z,73.30
2017-11-26T18:24:51.574Z,92.87
2017-11-26T18:27:17.956Z,80.27
2017-11-26T18:29:44.645Z,81.23
2017-11-26T18:32:11.143Z,80.07
2017-11-26T18:34:39.202Z,78.97
2017-11-26T18:37:05.640Z,78.57
2017-11-26T18:39:32.012Z,76.83
2017-11-26T18:41:58.418Z,82.33
2017-11-26T18:44:25.835Z,76.37
2017-11-26T18:46:53.154Z,90.07
2017-11-26T18:49:19.571Z,97.80
2017-11-26T18:51:47.578Z,110.00
2017-11-26T18:54:14.081Z,126.00
2017-11-26T18:56:40.506Z,149.20
2017-11-26T18:59:06.885Z,159.70
2017-11-26T19:01:34.080Z,141.20
2017-11-26T19:04:00.878Z,163.00
2017-11-26T19:06:27.323Z,162.27
2017-11-26T19:08:54.335Z,154.30
2017-11-26T19:11:20.747Z,170.23
2017-11-26T19:13:47.352Z,164.03
2017-11-26T19:16:13.774Z,150.10
2017-11-26T19:18:40.173Z,154.00
2017-11-26T19:21:06.658Z,167.27
2017-11-26T19:23:33.064Z,160.17
2017-11-26T19:25:59.495Z,134.20
2017-11-26T19:28:25.927Z,159.70
2017-11-26T19:30:52.484Z,198.10
2017-11-26T19:33:19.229Z,224.23
2017-11-26T19:35:48.785Z,206.63
2017-11-26T19:38:15.306Z,201.90
2017-11-26T19:40:42.347Z,179.43
2017-11-26T19:43:08.805Z,189.83
2017-11-26T19:45:38.261Z,213.67
2017-11-26T19:48:04.737Z,208.20
2017-11-26T19:50:31.282Z,195.50
2017-11-26T19:52:57.690Z,214.63
2017-11-26T19:55:24.206Z,168.43
2017-11-26T19:57:51.594Z,184.53
2017-11-26T20:00:18.182Z,165.00
2017-11-26T20:02:44.602Z,188.30
2017-11-26T20:05:11.179Z,177.50
2017-11-26T20:07:37.746Z,162.50
2017-11-26T20:10:04.324Z,130.93
2017-11-26T20:12:30.910Z,192.27
2017-11-26T20:14:57.597Z,174.87
2017-11-26T20:17:24.063Z,163.90
2017-11-26T20:19:50.576Z,188.87
2017-11-26T20:22:16.977Z,181.80
2017-11-26T20:24:43.321Z,204.53
2017-11-26T20:27:09.710Z,214.40
2017-11-26T20:29:36.154Z,211.03
2017-11-26T20:32:02.668Z,202.37
2017-11-26T20:34:29.135Z,187.00
2017-11-26T20:36:55.528Z,193.23
2017-11-26T20:39:21.890Z,195.27
2017-11-26T20:41:48.290Z,198.77
2017-11-26T20:44:14.634Z,200.77
2017-11-26T20:46:41.003Z,205.00
2017-11-26T20:49:07.399Z,183.67
2017-11-26T20:51:34.166Z,178.87
2017-11-26T20:54:00.881Z,165.27
2017-11-26T20:56:27.314Z,197.03
2017-11-26T20:58:53.665Z,160.07
2017-11-26T21:01:20.062Z,177.60
2017-11-26T21:03:46.610Z,187.30
2017-11-26T21:06:12.989Z,191.77
2017-11-26T21:08:39.345Z,180.03
2017-11-26T21:11:05.778Z,172.87
2017-11-26T21:13:32.125Z,171.37
2017-11-26T21:15:59.465Z,165.27
2017-11-26T21:18:25.897Z,164.17
2017-11-26T21:20:52.306Z,143.00
2017-11-26T21:23:18.704Z,154.17
2017-11-26T21:25:45.095Z,162.67
2017-11-26T21:28:11.443Z,133.63
2017-11-26T21:30:37.786Z,146.97
2017-11-26T21:33:04.170Z,146.33
2017-11-26T21:35:30.523Z,138.00
2017-11-26T21:37:56.908Z,138.73
2017-11-26T21:40:23.313Z,121.17
2017-11-26T21:42:49.669Z,112.73
2017-11-26T21:45:16.058Z,114.27
2017-11-26T21:47:42.442Z,117.20
2017-11-26T21:50:08.794Z,129.07
2017-11-26T21:52:35.214Z,118.47
2017-11-26T21:55:01.758Z,122.90
2017-11-26T21:57:28.218Z,133.47
2017-11-26T21:59:54.582Z,122.60
2017-11-26T22:02:21.010Z,116.43
2017-11-26T22:04:47.435Z,119.83
2017-11-26T22:07:13.793Z,113.50
2017-11-26T22:09:40.197Z,136.13
2017-11-26T22:12:06.564Z,132.00
2017-11-26T22:14:32.917Z,140.87
2017-11-26T22:16:59.326Z,117.30
2017-11-26T22:19:25.725Z,127.07
2017-11-26T22:21:52.113Z,112.57
2017-11-26T22:24:18.521Z,123.53
2017-11-26T22:26:44.885Z,119.83
2017-11-26T22:29:11.257Z,129.30
2017-11-26T22:31:37.645Z,127.20
2017-11-26T22:34:03.994Z,123.60
2017-11-26T22:36:30.355Z,123.90
2017-11-26T22:38:56.866Z,114.13
2017-11-26T22:41:23.222Z,100.10
2017-11-26T22:43:49.579Z,109.67
2017-11-26T22:46:16.022Z,115.67
2017-11-26T22:48:42.368Z,100.07
2017-11-26T22:51:08.725Z,111.00
2017-11-26T22:53:35.086Z,111.77
2017-11-26T22:56:01.467Z,117.77
2017-11-26T22:58:27.845Z,111.73
2017-11-26T23:00:54.297Z,110.60
2017-11-26T23:03:20.790Z,101.63
2017-11-26T23:05:47.142Z,96.40
2017-11-26T23:08:13.556Z,103.43
2017-11-26T23:10:39.917Z,99.83
2017-11-26T23:13:06.293Z,104.40
2017-11-26T23:15:32.674Z,105.30
2017-11-26T23:17:59.017Z,107.70
2017-11-26T23:20:25.412Z,96.63
2017-11-26T23:22:51.813Z,108.73
2017-11-26T23:25:18.293Z,109.63
2017-11-26T23:27:44.682Z,113.57
2017-11-26T23:30:11.155Z,111.33
2017-11-26T23:32:37.535Z,99.40
2017-11-26T23:35:03.890Z,106.93
2017-11-26T23:37:30.273Z,97.10
2017-11-26T23:39:56.633Z,92.33
2017-11-26T23:42:23.009Z,102.50
2017-11-26T23:44:49.390Z,108.27
2017-11-26T23:47:15.744Z,112.90
2017-11-26T23:49:42.102Z,103.47
2017-11-26T23:52:08.501Z,103.00
2017-11-26T23:54:34.881Z,95.80
2017-11-26T23:57:01.242Z,96.50
2017-11-26T23:59:27.733Z,108.80
